Terminal Aerodrome Forecast
Issued by NWS

Home | Current Version | Previous Version | Text Only | Print | Product List | Glossary On
Versions: 1 2 3 4 5 6 7 8 9 10 11 12 13 14 15 16 17
376
FTUS43 KDTX 040527
TAFMBS
TAF
KMBS 040527Z 0406/0506 21006KT P6SM SCT050 OVC070
      TEMPO 0407/0411 6SM -SHRA OVC050
     FM041100 36005KT 6SM -SHRA BR BKN028 OVC040
     FM041400 02006KT 4SM SHRA BR BKN012 OVC028
     FM041900 03015KT 6SM -SHRA BKN010 OVC022
     FM042300 01011KT P6SM BKN016 OVC028
     FM050200 36008KT P6SM BKN030=

USA.gov is the U.S. government's official web portal to all federal, state and local government web resources and services.